createdAt,value
2023-01-20T00:01:34.920Z,88.99
2023-01-20T00:04:03.029Z,89.02
2023-01-20T00:06:31.289Z,88.84
2023-01-20T00:09:01.043Z,88.81
2023-01-20T00:11:30.306Z,88.99
2023-01-20T00:14:00.930Z,89.07
2023-01-20T00:16:31.118Z,89.19
2023-01-20T00:18:59.034Z,89.12
2023-01-20T00:21:27.785Z,89.17
2023-01-20T00:23:55.931Z,89.02
2023-01-20T00:26:25.245Z,89.40
2023-01-20T00:28:55.060Z,89.42
2023-01-20T00:31:26.252Z,89.43
2023-01-20T00:33:56.389Z,89.46
2023-01-20T00:36:25.847Z,89.35
2023-01-20T00:38:54.001Z,89.25
2023-01-20T00:41:21.940Z,89.31
2023-01-20T00:43:49.754Z,89.62
2023-01-20T00:46:17.746Z,89.48
2023-01-20T00:48:45.663Z,89.46
2023-01-20T00:51:13.489Z,89.39
2023-01-20T00:53:41.511Z,89.47
2023-01-20T01:03:44.543Z,89.67
2023-01-20T01:06:17.626Z,89.65
2023-01-20T01:08:45.712Z,89.56
2023-01-20T01:11:14.281Z,89.42
2023-01-20T01:13:42.809Z,89.81
2023-01-20T01:16:13.766Z,89.98
2023-01-20T01:18:42.786Z,89.85
2023-01-20T01:21:14.524Z,89.86
2023-01-20T01:23:43.566Z,89.80
2023-01-20T01:26:12.221Z,89.84
2023-01-20T01:28:40.743Z,90.04
2023-01-20T01:31:09.836Z,89.69
2023-01-20T01:33:37.858Z,89.96
2023-01-20T01:36:06.601Z,89.93
2023-01-20T01:38:35.164Z,89.92
2023-01-20T01:41:03.243Z,89.94
2023-01-20T01:43:33.816Z,89.79
2023-01-20T01:46:02.613Z,89.72
2023-01-20T01:48:41.610Z,89.99
2023-01-20T01:51:15.561Z,90.02
2023-01-20T01:53:49.265Z,89.96
2023-01-20T01:56:17.193Z,89.93
2023-01-20T01:58:48.866Z,89.76
2023-01-20T02:01:17.027Z,89.66
2023-01-20T02:03:53.580Z,89.70
2023-01-20T02:06:24.787Z,89.91
2023-01-20T02:08:54.019Z,89.90
2023-01-20T02:11:22.162Z,89.51
2023-01-20T02:13:50.216Z,89.71
2023-01-20T02:16:28.171Z,90.13
2023-01-20T02:19:14.950Z,89.62
2023-01-20T02:21:53.060Z,90.03
2023-01-20T02:24:39.674Z,90.05
2023-01-20T02:27:23.949Z,89.89
2023-01-20T02:30:38.603Z,89.78
2023-01-20T02:33:13.273Z,89.64
2023-01-20T02:35:51.807Z,90.04
2023-01-20T02:38:43.420Z,89.73
2023-01-20T02:41:21.800Z,89.79
2023-01-20T02:44:11.403Z,89.70
2023-01-20T02:46:55.146Z,89.72
2023-01-20T02:49:38.480Z,90.12
2023-01-20T02:52:17.105Z,90.36
2023-01-20T02:54:50.165Z,90.20
2023-01-20T02:57:48.367Z,90.30
2023-01-20T03:00:25.568Z,90.13
2023-01-20T03:02:56.470Z,90.47
2023-01-20T03:05:30.121Z,90.47
2023-01-20T03:08:01.671Z,90.72
2023-01-20T03:18:06.009Z,90.73
2023-01-20T03:20:33.857Z,90.82
2023-01-20T03:23:01.867Z,90.80
2023-01-20T03:25:29.806Z,90.60
2023-01-20T03:27:57.632Z,90.37
2023-01-20T03:30:25.796Z,90.76
2023-01-20T03:32:53.727Z,90.82
2023-01-20T03:35:22.133Z,90.98
2023-01-20T03:37:50.267Z,90.81
2023-01-20T03:40:18.406Z,90.53
2023-01-20T03:43:01.780Z,90.90
2023-01-20T03:45:45.524Z,90.91
2023-01-20T03:48:25.133Z,90.78
2023-01-20T03:51:12.780Z,90.86
2023-01-20T03:54:06.058Z,90.72
2023-01-20T03:56:44.111Z,90.65
2023-01-20T03:59:14.692Z,90.67
2023-01-20T04:01:45.017Z,90.77
2023-01-20T04:04:16.757Z,90.69
2023-01-20T04:06:47.195Z,91.07
2023-01-20T04:09:20.480Z,91.08
2023-01-20T04:11:48.429Z,90.72
2023-01-20T04:14:16.426Z,90.90
2023-01-20T04:16:55.755Z,91.11
2023-01-20T04:19:25.204Z,90.48
2023-01-20T04:22:12.475Z,90.82
2023-01-20T04:24:42.660Z,91.17
2023-01-20T04:27:10.691Z,91.25
2023-01-20T04:29:38.729Z,91.06
2023-01-20T04:32:06.622Z,90.96
2023-01-20T04:34:34.599Z,91.54
2023-01-20T04:37:02.521Z,91.32
2023-01-20T04:39:30.587Z,91.09
2023-01-20T04:41:58.584Z,91.24
2023-01-20T04:44:26.411Z,91.21
2023-01-20T04:46:58.897Z,91.27
2023-01-20T04:49:26.924Z,91.13
2023-01-20T04:51:54.721Z,91.51
2023-01-20T04:54:22.595Z,91.49
2023-01-20T04:56:50.395Z,91.30
2023-01-20T04:59:18.309Z,91.15
2023-01-20T05:01:46.342Z,91.07
2023-01-20T05:04:14.240Z,90.79
2023-01-20T05:06:43.585Z,90.64
2023-01-20T05:09:16.567Z,90.99
2023-01-20T05:11:44.417Z,90.68
2023-01-20T05:14:13.649Z,91.14
2023-01-20T05:16:41.712Z,91.43
2023-01-20T05:19:12.051Z,91.21
2023-01-20T05:21:40.240Z,91.03
2023-01-20T05:24:08.899Z,91.27
2023-01-20T05:26:37.035Z,91.09
2023-01-20T05:29:05.803Z,91.07
2023-01-20T05:31:33.669Z,90.93
2023-01-20T05:34:01.554Z,90.77
2023-01-20T05:36:29.401Z,90.81
2023-01-20T05:38:57.197Z,90.94
2023-01-20T05:41:25.054Z,91.22
2023-01-20T05:43:56.055Z,91.08
2023-01-20T05:46:24.029Z,91.07
2023-01-20T05:48:51.863Z,90.97
2023-01-20T05:51:19.924Z,91.02
2023-01-20T05:53:47.755Z,90.86
2023-01-20T05:56:16.325Z,90.87
2023-01-20T05:58:44.441Z,90.70
2023-01-20T06:08:49.695Z,90.83
2023-01-20T06:11:18.117Z,90.65
2023-01-20T06:13:49.392Z,90.85
2023-01-20T06:16:18.506Z,91.18
2023-01-20T06:18:46.437Z,91.28
2023-01-20T06:21:14.273Z,91.24
2023-01-20T06:23:42.447Z,90.97
2023-01-20T06:26:14.533Z,91.10
2023-01-20T06:28:42.934Z,90.85
2023-01-20T06:31:14.048Z,90.97
2023-01-20T06:33:43.275Z,90.76
2023-01-20T06:36:14.122Z,90.72
2023-01-20T06:38:42.114Z,90.97
2023-01-20T06:41:12.447Z,90.84
2023-01-20T06:43:41.955Z,90.92
2023-01-20T06:46:12.875Z,90.98
2023-01-20T06:48:41.528Z,91.04
2023-01-20T06:51:19.239Z,91.11
2023-01-20T06:53:47.874Z,91.25
2023-01-20T06:56:16.220Z,91.30
2023-01-20T06:58:44.965Z,91.02
2023-01-20T07:01:25.353Z,91.07
2023-01-20T07:03:54.194Z,91.00
2023-01-20T07:06:24.701Z,90.73
2023-01-20T07:08:52.797Z,90.71
2023-01-20T07:11:20.734Z,91.06
2023-01-20T07:13:48.957Z,90.92
2023-01-20T07:16:17.316Z,90.99
2023-01-20T07:18:49.339Z,91.17
2023-01-20T07:21:17.880Z,90.71
2023-01-20T07:23:46.307Z,91.18
2023-01-20T07:26:22.556Z,91.13
2023-01-20T07:28:50.525Z,91.17
2023-01-20T07:31:25.463Z,91.21
2023-01-20T07:33:57.005Z,91.23
2023-01-20T07:36:25.366Z,90.94
2023-01-20T07:38:53.802Z,91.15
2023-01-20T07:41:22.643Z,91.48
2023-01-20T07:43:52.007Z,91.44
2023-01-20T07:46:20.666Z,91.53
2023-01-20T07:48:48.605Z,90.95
2023-01-20T07:51:17.472Z,91.05
2023-01-20T07:53:47.825Z,91.16
2023-01-20T07:56:25.396Z,90.98
2023-01-20T07:58:55.309Z,91.53
2023-01-20T08:01:30.016Z,91.80
2023-01-20T08:04:02.497Z,91.51
2023-01-20T08:06:30.886Z,91.59
2023-01-20T08:09:02.825Z,92.10
2023-01-20T08:11:34.586Z,92.03
2023-01-20T08:14:02.445Z,91.79
2023-01-20T08:16:30.347Z,91.67
2023-01-20T08:18:58.717Z,91.82
2023-01-20T08:21:32.199Z,91.51
2023-01-20T08:24:02.710Z,91.60
2023-01-20T08:26:31.540Z,91.16
2023-01-20T08:29:03.392Z,91.21
2023-01-20T08:31:31.292Z,91.32
2023-01-20T08:33:59.406Z,91.46
2023-01-20T08:36:30.851Z,91.20
2023-01-20T08:39:02.699Z,90.75
2023-01-20T08:41:34.175Z,90.70
2023-01-20T08:44:04.625Z,90.79
2023-01-20T08:46:33.028Z,90.73
2023-01-20T08:49:01.574Z,90.58
2023-01-20T08:51:32.345Z,90.62
2023-01-20T08:54:00.933Z,90.33
2023-01-20T08:56:29.874Z,90.06
2023-01-20T08:58:59.291Z,90.38
2023-01-20T09:01:29.131Z,90.31
2023-01-20T09:04:06.863Z,90.09
2023-01-20T09:06:42.224Z,89.92
2023-01-20T09:09:11.278Z,90.20
2023-01-20T09:11:39.753Z,89.91
2023-01-20T09:14:07.767Z,89.91
2023-01-20T09:16:35.680Z,90.11
2023-01-20T09:19:03.718Z,90.11
2023-01-20T09:21:31.624Z,89.76
2023-01-20T09:24:00.174Z,89.79
2023-01-20T09:26:35.750Z,89.70
2023-01-20T09:29:15.841Z,89.69
2023-01-20T09:31:50.370Z,89.37
2023-01-20T09:34:24.443Z,89.72
2023-01-20T09:36:54.319Z,89.69
2023-01-20T09:39:41.549Z,89.74
2023-01-20T09:42:46.046Z,89.40
2023-01-20T09:45:24.859Z,89.08
2023-01-20T09:48:03.890Z,88.89
2023-01-20T09:51:04.469Z,89.13
2023-01-20T09:53:55.929Z,89.19
2023-01-20T09:56:26.212Z,88.77
2023-01-20T09:59:10.373Z,88.86
2023-01-20T10:01:58.206Z,88.50
2023-01-20T10:04:32.970Z,88.84
2023-01-20T10:07:09.291Z,88.51
2023-01-20T10:09:46.844Z,88.51
2023-01-20T10:12:27.935Z,88.74
2023-01-20T10:15:04.798Z,88.63
2023-01-20T10:17:39.541Z,89.08
2023-01-20T10:20:16.932Z,88.96
2023-01-20T10:22:52.618Z,89.01
2023-01-20T10:25:28.201Z,89.24
2023-01-20T10:28:00.364Z,89.16
2023-01-20T10:30:34.688Z,89.16
2023-01-20T10:33:14.009Z,89.18
2023-01-20T10:35:52.099Z,89.26
2023-01-20T10:38:36.361Z,89.44
2023-01-20T10:41:47.638Z,89.14
2023-01-20T10:44:16.692Z,88.72
2023-01-20T10:47:22.334Z,88.78
2023-01-20T10:50:03.805Z,88.84
2023-01-20T10:52:59.467Z,89.38
2023-01-20T10:56:05.203Z,88.82
2023-01-20T10:58:38.213Z,88.93
2023-01-20T11:01:10.281Z,88.86
2023-01-20T11:03:43.356Z,88.55
2023-01-20T11:06:22.473Z,88.48
2023-01-20T11:08:51.231Z,88.47
2023-01-20T11:11:22.665Z,88.30
2023-01-20T11:13:52.304Z,88.31
2023-01-20T11:16:31.159Z,87.92
2023-01-20T11:19:07.688Z,87.89
2023-01-20T11:21:37.523Z,87.87
2023-01-20T11:24:34.090Z,87.94
2023-01-20T11:27:04.728Z,88.23
2023-01-20T11:29:40.166Z,87.68
2023-01-20T11:32:25.569Z,87.94
2023-01-20T11:34:55.078Z,87.55
2023-01-20T11:37:26.060Z,87.39
2023-01-20T11:40:17.693Z,87.23
2023-01-20T11:42:48.319Z,87.40
2023-01-20T11:45:26.158Z,87.57
2023-01-20T11:48:16.570Z,87.19
2023-01-20T11:50:57.576Z,87.03
2023-01-20T11:53:28.772Z,87.12
2023-01-20T11:55:57.962Z,87.43
2023-01-20T11:58:32.562Z,87.22
2023-01-20T12:01:04.171Z,87.42
2023-01-20T12:04:09.252Z,86.93
2023-01-20T12:06:49.233Z,87.39
2023-01-20T12:09:20.266Z,87.35
2023-01-20T12:12:01.814Z,87.27
2023-01-20T12:14:39.520Z,86.97
2023-01-20T12:17:49.965Z,86.80
2023-01-20T12:20:26.527Z,86.91
2023-01-20T12:23:21.286Z,86.82
2023-01-20T12:25:52.440Z,86.92
2023-01-20T12:28:28.832Z,86.97
2023-01-20T12:31:09.376Z,86.92
2023-01-20T12:33:40.428Z,87.19
2023-01-20T12:36:36.657Z,86.67
2023-01-20T12:39:28.371Z,87.03
2023-01-20T12:42:09.647Z,86.90
2023-01-20T12:44:52.542Z,87.02
2023-01-20T12:47:58.379Z,86.69
2023-01-20T12:50:44.823Z,86.85
2023-01-20T12:53:42.489Z,86.77
2023-01-20T12:56:32.883Z,86.83
2023-01-20T12:59:43.616Z,86.63
2023-01-20T13:03:06.348Z,86.16
2023-01-20T13:06:01.326Z,86.38
2023-01-20T13:08:37.469Z,86.05
2023-01-20T13:11:35.427Z,86.21
2023-01-20T13:14:17.877Z,86.35
2023-01-20T13:16:54.588Z,86.51
2023-01-20T13:19:33.162Z,86.61
2023-01-20T13:22:22.506Z,86.86
2023-01-20T13:24:58.642Z,86.66
2023-01-20T13:27:29.314Z,86.47
2023-01-20T13:29:59.508Z,86.91
2023-01-20T13:32:46.246Z,86.94
2023-01-20T13:35:23.513Z,87.21
2023-01-20T13:37:54.968Z,87.07
2023-01-20T13:40:38.379Z,87.45
2023-01-20T13:43:27.669Z,87.42
2023-01-20T13:46:15.378Z,87.24
2023-01-20T13:49:13.805Z,87.76
2023-01-20T13:51:46.456Z,87.47
2023-01-20T13:54:25.114Z,87.48
2023-01-20T13:56:53.151Z,87.37
2023-01-20T13:59:20.937Z,87.35
2023-01-20T14:01:48.874Z,87.37
2023-01-20T14:04:19.044Z,87.51
2023-01-20T14:06:49.707Z,87.73
2023-01-20T14:09:26.148Z,87.54
2023-01-20T14:11:57.036Z,87.32
2023-01-20T14:14:26.582Z,87.32
2023-01-20T14:16:56.362Z,87.49
2023-01-20T14:19:32.699Z,87.65
2023-01-20T14:22:17.779Z,87.55
2023-01-20T14:24:49.219Z,87.40
2023-01-20T14:27:17.046Z,87.56
2023-01-20T14:29:46.697Z,87.33
2023-01-20T14:32:19.424Z,87.19
2023-01-20T14:34:49.121Z,86.93
2023-01-20T14:37:30.816Z,87.03
2023-01-20T14:40:18.641Z,87.21
2023-01-20T14:43:08.094Z,87.53
2023-01-20T14:45:37.127Z,87.91
2023-01-20T14:48:05.983Z,88.26
2023-01-20T14:50:34.365Z,87.89
2023-01-20T14:53:02.547Z,87.94
2023-01-20T14:55:33.260Z,88.46
2023-01-20T14:58:08.157Z,88.24
2023-01-20T15:00:43.138Z,87.93
2023-01-20T15:03:28.446Z,88.05
2023-01-20T15:06:00.821Z,88.55
2023-01-20T15:08:35.001Z,88.48
2023-01-20T15:11:18.606Z,88.53
2023-01-20T15:13:57.319Z,88.45
2023-01-20T15:16:46.750Z,88.44
2023-01-20T15:19:15.696Z,88.51
2023-01-20T15:21:51.052Z,88.86
2023-01-20T15:24:22.279Z,88.43
2023-01-20T15:26:52.809Z,88.04
2023-01-20T15:29:25.577Z,88.51
2023-01-20T15:31:56.170Z,88.44
2023-01-20T15:34:25.132Z,88.86
2023-01-20T15:36:54.420Z,88.63
2023-01-20T15:39:25.986Z,88.55
2023-01-20T15:41:57.299Z,88.40
2023-01-20T15:44:26.314Z,88.21
2023-01-20T15:46:57.276Z,88.41
2023-01-20T15:49:25.847Z,88.73
2023-01-20T15:51:53.973Z,88.63
2023-01-20T15:54:21.881Z,88.81
2023-01-20T15:56:49.826Z,88.78
2023-01-20T15:59:22.684Z,88.72
2023-01-20T16:01:51.034Z,88.51
2023-01-20T16:04:20.629Z,88.47
2023-01-20T16:06:48.619Z,88.66
2023-01-20T16:09:26.219Z,88.63
2023-01-20T16:11:54.573Z,89.19
2023-01-20T16:14:22.365Z,89.00
2023-01-20T16:16:50.283Z,88.72
2023-01-20T16:19:18.100Z,88.74
2023-01-20T16:21:46.019Z,88.84
2023-01-20T16:24:13.869Z,88.98
2023-01-20T16:26:45.886Z,89.30
2023-01-20T16:29:13.926Z,89.19
2023-01-20T16:31:41.752Z,89.43
2023-01-20T16:34:09.755Z,89.22
2023-01-20T16:36:37.600Z,89.30
2023-01-20T16:39:05.416Z,89.66
2023-01-20T16:41:34.570Z,89.36
2023-01-20T16:44:02.683Z,89.05
2023-01-20T16:46:33.027Z,88.90
2023-01-20T16:49:02.094Z,89.22
2023-01-20T16:51:31.601Z,89.59
2023-01-20T16:53:59.981Z,89.63
2023-01-20T16:56:32.575Z,89.38
2023-01-20T16:59:02.389Z,89.59
2023-01-20T17:01:30.850Z,89.29
2023-01-20T17:04:01.684Z,89.44
2023-01-20T17:06:32.238Z,89.53
2023-01-20T17:09:02.559Z,89.73
2023-01-20T17:11:34.874Z,89.54
2023-01-20T17:14:05.476Z,89.41
2023-01-20T17:16:34.272Z,89.61
2023-01-20T17:19:02.939Z,89.50
2023-01-20T17:21:33.057Z,89.85
2023-01-20T17:24:04.082Z,89.36
2023-01-20T17:26:32.329Z,89.12
2023-01-20T17:29:03.672Z,89.23
2023-01-20T17:31:35.577Z,89.45
2023-01-20T17:34:05.247Z,89.24
2023-01-20T17:36:34.995Z,89.00
2023-01-20T17:39:05.090Z,89.18
2023-01-20T17:41:34.248Z,89.04
2023-01-20T17:44:04.157Z,89.21
2023-01-20T17:46:32.968Z,89.31
2023-01-20T17:49:04.861Z,89.02
2023-01-20T17:51:34.579Z,89.19
2023-01-20T17:54:03.980Z,89.29
2023-01-20T17:56:32.548Z,89.22
2023-01-20T17:59:00.717Z,89.52
2023-01-20T18:01:32.032Z,89.42
2023-01-20T18:04:04.347Z,89.76
2023-01-20T18:06:35.761Z,89.65
2023-01-20T18:09:06.976Z,89.61
2023-01-20T18:11:37.548Z,89.36
2023-01-20T18:14:06.970Z,89.43
2023-01-20T18:16:38.061Z,89.49
2023-01-20T18:19:06.278Z,89.11
2023-01-20T18:21:36.586Z,89.12
2023-01-20T18:24:07.576Z,89.36
2023-01-20T18:26:37.669Z,89.09
2023-01-20T18:29:14.489Z,89.37
2023-01-20T18:31:42.572Z,89.28
2023-01-20T18:34:13.038Z,89.31
2023-01-20T18:36:45.009Z,89.60
2023-01-20T18:39:16.123Z,89.65
2023-01-20T18:41:44.803Z,89.57
2023-01-20T18:44:12.972Z,89.59
2023-01-20T18:46:41.154Z,89.63
2023-01-20T18:49:13.293Z,89.50
2023-01-20T18:51:42.542Z,89.29
2023-01-20T18:54:14.944Z,89.48
2023-01-20T18:56:43.539Z,89.56
2023-01-20T18:59:11.665Z,89.72
2023-01-20T19:01:40.973Z,89.76
2023-01-20T19:04:11.886Z,89.68
2023-01-20T19:06:42.138Z,89.63
2023-01-20T19:09:11.096Z,89.47
2023-01-20T19:11:41.398Z,89.40
2023-01-20T19:14:14.254Z,89.49
2023-01-20T19:16:45.415Z,89.63
2023-01-20T19:19:13.777Z,89.69
2023-01-20T19:21:42.426Z,89.52
2023-01-20T19:24:17.324Z,89.74
2023-01-20T19:26:46.028Z,89.68
2023-01-20T19:29:17.268Z,89.90
2023-01-20T19:31:45.608Z,89.86
2023-01-20T19:34:17.811Z,89.73
2023-01-20T19:36:48.463Z,89.77
2023-01-20T19:39:17.849Z,89.73
2023-01-20T19:41:46.065Z,89.36
2023-01-20T19:44:15.521Z,89.92
2023-01-20T19:46:44.015Z,89.94
2023-01-20T19:49:13.237Z,89.61
2023-01-20T19:51:41.907Z,89.84
2023-01-20T19:54:13.652Z,89.86
2023-01-20T19:56:42.017Z,90.09
2023-01-20T19:59:15.909Z,89.61
2023-01-20T20:01:46.657Z,90.28
2023-01-20T20:04:14.857Z,90.07
2023-01-20T20:06:48.047Z,90.26
2023-01-20T20:09:21.306Z,90.44
2023-01-20T20:11:49.726Z,90.38
2023-01-20T20:14:20.186Z,90.04
2023-01-20T20:16:49.416Z,90.03
2023-01-20T20:19:19.639Z,90.10
2023-01-20T20:21:48.074Z,90.04
2023-01-20T20:24:20.734Z,90.12
2023-01-20T20:26:51.575Z,89.97
2023-01-20T20:29:19.554Z,90.16
2023-01-20T20:31:47.676Z,89.98
2023-01-20T20:34:19.088Z,90.09
2023-01-20T20:36:49.067Z,90.19
2023-01-20T20:39:18.613Z,89.96
2023-01-20T20:41:47.281Z,90.10
2023-01-20T20:44:15.548Z,89.96
2023-01-20T20:46:43.972Z,89.83
2023-01-20T20:49:15.342Z,89.98
2023-01-20T20:51:43.936Z,89.76
2023-01-20T20:54:15.514Z,89.59
2023-01-20T20:56:44.091Z,89.78
2023-01-20T20:59:12.060Z,89.82
2023-01-20T21:01:40.103Z,89.71
2023-01-20T21:04:08.169Z,89.72
2023-01-20T21:06:36.222Z,89.64
2023-01-20T21:09:04.381Z,89.83
2023-01-20T21:11:32.909Z,89.97
2023-01-20T21:14:00.888Z,89.77
2023-01-20T21:16:29.291Z,89.76
2023-01-20T21:18:58.424Z,89.56
2023-01-20T21:21:29.157Z,89.63
2023-01-20T21:23:59.440Z,89.45
2023-01-20T21:26:30.459Z,89.18
2023-01-20T21:29:02.207Z,89.41
2023-01-20T21:31:31.339Z,89.13
2023-01-20T21:34:00.791Z,89.28
2023-01-20T21:36:30.320Z,89.33
2023-01-20T21:38:59.466Z,89.38
2023-01-20T21:41:28.100Z,89.44
2023-01-20T21:44:14.467Z,88.90
2023-01-20T21:46:42.446Z,89.37
2023-01-20T21:49:29.470Z,89.01
2023-01-20T21:52:16.169Z,89.22
2023-01-20T21:54:45.495Z,89.02
2023-01-20T21:57:14.735Z,88.98
2023-01-20T21:59:43.446Z,89.24
2023-01-20T22:02:13.245Z,89.04
2023-01-20T22:04:42.319Z,89.09
2023-01-20T22:07:10.661Z,89.05
2023-01-20T22:09:39.777Z,88.92
2023-01-20T22:12:08.366Z,88.88
2023-01-20T22:14:37.404Z,88.93
2023-01-20T22:17:06.975Z,88.82
2023-01-20T22:19:35.336Z,88.95
2023-01-20T22:22:03.781Z,88.56
2023-01-20T22:24:32.026Z,88.57
2023-01-20T22:27:00.484Z,88.57
2023-01-20T22:29:28.699Z,88.60
2023-01-20T22:31:59.536Z,88.78
2023-01-20T22:34:28.055Z,88.35
2023-01-20T22:36:57.568Z,88.73
2023-01-20T22:39:25.404Z,88.71
2023-01-20T22:41:53.221Z,88.80
2023-01-20T22:44:21.138Z,88.82
2023-01-20T22:46:49.096Z,88.82
2023-01-20T22:49:17.141Z,88.56
2023-01-20T22:51:44.975Z,88.78
2023-01-20T22:54:13.097Z,89.04
2023-01-20T22:56:41.015Z,89.02
2023-01-20T22:59:12.037Z,88.80
2023-01-20T23:01:39.979Z,88.86
2023-01-20T23:04:07.882Z,89.03
2023-01-20T23:06:36.731Z,88.98
2023-01-20T23:09:11.657Z,88.97
2023-01-20T23:11:40.355Z,89.32
2023-01-20T23:14:12.883Z,88.90
2023-01-20T23:16:42.453Z,89.02
2023-01-20T23:19:10.921Z,88.82
2023-01-20T23:21:38.939Z,88.92
2023-01-20T23:24:08.487Z,88.93
2023-01-20T23:26:36.557Z,89.27
2023-01-20T23:29:05.409Z,88.89
2023-01-20T23:31:35.431Z,89.02
2023-01-20T23:34:04.054Z,89.34
2023-01-20T23:36:32.387Z,89.08
2023-01-20T23:39:00.245Z,89.03
2023-01-20T23:41:28.346Z,88.71
2023-01-20T23:43:56.377Z,88.74
2023-01-20T23:46:24.193Z,88.87
2023-01-20T23:48:52.119Z,88.80
2023-01-20T23:51:20.815Z,88.87
2023-01-20T23:53:49.248Z,88.77
2023-01-20T23:56:20.380Z,88.91
2023-01-20T23:58:48.777Z,88.98
